LEGR/GRX METAR and TAF weather

Enter ICAO airport designator
Station Type Date Time Source
LEGR METAR 2022/12/05 14:00 UTC NOAA

LEGR 051400Z VRB02KT 9999 SCT100 16/10 Q1009


Station Type Date Time Source
LEGR Decoded METAR 2022/12/05 14:00 UTC NOAA

Granada / Aeropuerto, Spain (LEGR) 37-11N 003-47W 570M
Dec 05, 2022 - 09:00 AM EST / 2022.12.05 1400 UTC
Wind: Variable at 2 MPH (2 KT):0
Visibility: greater than 7 mile(s):0
Sky conditions: partly cloudy
Temperature: 60 F (16 C)
Dew Point: 50 F (10 C)
Relative Humidity: 67%
Pressure (altimeter): 29.80 in. Hg (1009 hPa)
ob: LEGR 051400Z VRB02KT 9999 SCT100 16/10 Q1009
cycle: 14

Station Type Date Time Source
LEGR TAF 2022/12/05 13:40 UTC NOAA

TAF
AMD LEGR 051332Z 0513/0612 VRB03KT 9999 SCT040 TX18/0515Z TN06/0606Z
BECMG 0516/0518 16012KT PROB40
TEMPO 0523/0606 4000 RA BKN014
BECMG 0601/0603 VRB02KT
BECMG 0609/0611 27010KT

Example: see airport list